Svitzer Leixoes — CSXW6 — position and weather

sailwx.info

Track history (hours):
 
Tides and Currents Weather Stations Pressure Air Temp Water Temp Dewpoint Dewpoint Depression Visibility Wind Speed Wind Dir Waves Ship Positions

Svitzer Leixoes

Last reported at 2014-Jul-25 03:33 UTC. Time now 2014-Jul-25 03:40 UTC.
Position N 38°42' W 009°10'.

Length 28 m; draft 3.9 m.

Type: Towing. MMSI: 263622000.

Date/timePositionNaut miles runAvg speedWind from/ knotsBaromVisibWave heightAir tempDewpointWater temp
2014-Jul-25 03:33N 38°42' W 009°10'0 0.0
2014-Jul-25 02:34N 38°42' W 009°10'4 3.8
2014-Jul-25 01:33N 38°41' W 009°14'2 2.4
2014-Jul-25 00:33N 38°42' W 009°11'1 1.4
2014-Jul-24 23:33N 38°42' W 009°10'0 0.0
2014-Jul-24 22:33N 38°42' W 009°10'0 0.0
2014-Jul-24 21:33N 38°42' W 009°10'1 1.2
2014-Jul-24 20:33N 38°41' W 009°08'1 1.2
2014-Jul-24 19:33N 38°42' W 009°10'2 2.0
2014-Jul-24 18:33N 38°41' W 009°12'2 2.0
2014-Jul-24 17:33N 38°42' W 009°10'2 1.5
2014-Jul-24 16:34N 38°42' W 009°08'2 1.2
2014-Jul-24 14:32N 38°42' W 009°11'1 1.0
2014-Jul-24 13:33N 38°41' W 009°11'1 1.2
2014-Jul-24 12:32N 38°42' W 009°10'1 0.6
2014-Jul-24 11:29N 38°42' W 009°10'1 1.5
2014-Jul-24 10:33N 38°42' W 009°08'1 0.7
2014-Jul-24 08:33N 38°42' W 009°10'0 0.0
2014-Jul-24 07:33N 38°42' W 009°10'0 0.0
2014-Jul-24 06:25N 38°42' W 009°10'1 1.3
2014-Jul-24 05:33N 38°42' W 009°11'1 0.9
2014-Jul-24 04:16N 38°42' W 009°10'0 0.0
2014-Jul-24 03:21N 38°42' W 009°10'0 0.0
2014-Jul-24 01:33N 38°42' W 009°10'0 0.0
2014-Jul-24 00:32N 38°42' W 009°10'1 1.3
2014-Jul-23 23:34N 38°41' W 009°08'1 1.5
2014-Jul-23 22:34N 38°41' W 009°07'3 2.7
2014-Jul-23 21:32N 38°42' W 009°10'0 0.0
2014-Jul-23 20:33N 38°42' W 009°10'0 0.0
2014-Jul-23 19:33N 38°42' W 009°10'0 0.0
2014-Jul-23 18:31N 38°42' W 009°10'0 0.0
2014-Jul-23 17:31N 38°42' W 009°10'0 0.3
2014-Jul-23 16:33N 38°42' W 009°10'0 0.4
2014-Jul-23 15:33N 38°42' W 009°10'1 0.6
2014-Jul-23 14:28N 38°42' W 009°10'0 0.0
2014-Jul-23 13:25N 38°42' W 009°10'1 0.6
2014-Jul-23 12:32N 38°42' W 009°09'1 0.3
2014-Jul-23 10:25N 38°42' W 009°10'0 0.0
2014-Jul-23 09:34N 38°42' W 009°10'0 0.0
2014-Jul-23 08:33N 38°42' W 009°10'0 0.0
2014-Jul-23 07:31N 38°42' W 009°10'0 0.0
2014-Jul-23 06:33N 38°42' W 009°10'0 0.0
2014-Jul-23 05:32N 38°42' W 009°10'0 0.0
2014-Jul-23 04:34N 38°42' W 009°10'0 0.0
2014-Jul-23 03:33N 38°42' W 009°10'0 0.0
2014-Jul-23 02:32N 38°42' W 009°10'0 0.0
2014-Jul-23 01:34N 38°42' W 009°10'1 1.2
2014-Jul-23 00:34N 38°41' W 009°08'4 3.5
2014-Jul-22 23:33N 38°41' W 009°04'5 4.6
2014-Jul-22 22:34N 38°42' W 009°10'0 0.0
2014-Jul-22 21:31N 38°42' W 009°10'0 0.0
2014-Jul-22 20:31N 38°42' W 009°10'0 0.0
2014-Jul-22 19:33N 38°42' W 009°10'0 0.0
2014-Jul-22 18:27N 38°42' W 009°10'0 0.0
2014-Jul-22 17:11N 38°42' W 009°10'0 0.0
2014-Jul-22 13:29N 38°42' W 009°10'0 0.0
2014-Jul-22 12:33N 38°42' W 009°10'0 0.0
2014-Jul-22 11:33N 38°42' W 009°10'0 0.0
2014-Jul-22 10:28N 38°42' W 009°10'0 0.0
2014-Jul-22 09:33N 38°42' W 009°10'0 0.0
2014-Jul-22 08:33N 38°42' W 009°10'0 0.0
2014-Jul-22 07:33N 38°42' W 009°10'0 0.4
2014-Jul-22 06:33N 38°42' W 009°10'0 0.4
2014-Jul-22 05:33N 38°42' W 009°10'0 0.0
2014-Jul-22 04:33N 38°42' W 009°10'0 0.0
2014-Jul-22 03:33N 38°42' W 009°10'0 0.0
2014-Jul-22 02:34N 38°42' W 009°10'0 0.0
2014-Jul-22 01:34N 38°42' W 009°10'0 0.0
2014-Jul-22 00:33N 38°42' W 009°10'0 0.0
2014-Jul-21 23:33N 38°42' W 009°10'0 0.0
2014-Jul-21 22:33N 38°42' W 009°10'0 0.0
2014-Jul-21 21:32N 38°42' W 009°10'3 3.1
2014-Jul-21 20:33N 38°41' W 009°13'1 3.0
2014-Jul-21 20:15N 38°41' W 009°14'0 0.1
2014-Jul-21 19:33N 38°41' W 009°14'0 0.1
2014-Jul-21 17:31N 38°41' W 009°14'0 0.2
2014-Jul-21 16:32N 38°41' W 009°14'3 2.5
2014-Jul-21 15:14N 38°42' W 009°10'1 0.9
2014-Jul-21 14:32N 38°42' W 009°10'0 0.0
2014-Jul-21 13:33N 38°42' W 009°10'0 0.0
2014-Jul-21 12:33N 38°42' W 009°10'0 0.0
2014-Jul-21 11:34N 38°42' W 009°10'3 3.3
2014-Jul-21 10:33N 38°41' W 009°06'0 0.1
2014-Jul-21 09:34N 38°41' W 009°06'3 2.9
2014-Jul-21 08:29N 38°42' W 009°10'0 0.4
2014-Jul-21 07:34N 38°42' W 009°10'0 0.1
2014-Jul-21 06:34N 38°42' W 009°10'0 0.4
2014-Jul-21 05:33N 38°42' W 009°10'0 0.0
2014-Jul-21 04:34N 38°42' W 009°10'0 0.0
2014-Jul-21 03:33N 38°42' W 009°10'0 0.0
2014-Jul-21 02:33N 38°42' W 009°10'0 0.0
2014-Jul-21 01:33N 38°42' W 009°10'0 0.0
2014-Jul-21 00:33N 38°42' W 009°10'0 0.1
2014-Jul-20 23:32N 38°42' W 009°09'0 0.3
2014-Jul-20 22:34N 38°42' W 009°09'0 0.2
2014-Jul-20 21:32N 38°42' W 009°10'0 0.0
2014-Jul-20 20:33N 38°42' W 009°10'0 0.0
2014-Jul-20 19:33N 38°42' W 009°10'0 0.0
2014-Jul-20 18:34N 38°42' W 009°10'0 0.0
2014-Jul-20 17:33N 38°42' W 009°10'0 0.0
2014-Jul-20 16:32N 38°42' W 009°10'0 0.0
2014-Jul-20 15:30N 38°42' W 009°10'0 0.0
2014-Jul-20 14:33N 38°42' W 009°10'0 0.0
2014-Jul-20 13:34N 38°42' W 009°10'0 0.0
2014-Jul-20 12:33N 38°42' W 009°10'0 0.0
2014-Jul-20 11:34N 38°42' W 009°10'0 0.3
2014-Jul-20 10:34N 38°42' W 009°09'2 1.6
2014-Jul-20 09:33N 38°41' W 009°11'1 0.5
2014-Jul-20 08:33N 38°41' W 009°11'2 1.9
2014-Jul-20 07:34N 38°42' W 009°10'0 0.0
2014-Jul-20 06:29N 38°42' W 009°10'0 0.0
2014-Jul-20 05:33N 38°42' W 009°10'0 0.0
2014-Jul-20 04:28N 38°42' W 009°10'0 0.0
2014-Jul-20 03:33N 38°42' W 009°10'0 0.0
2014-Jul-20 02:34N 38°42' W 009°10'0 0.0
2014-Jul-20 01:32N 38°42' W 009°10'0 0.0
2014-Jul-20 00:34N 38°42' W 009°10'0 0.0
2014-Jul-19 23:33N 38°42' W 009°10'0 0.0
2014-Jul-19 22:33N 38°42' W 009°10'0 0.0
2014-Jul-19 21:33N 38°42' W 009°10'0 0.0
2014-Jul-19 20:33N 38°42' W 009°10'0 0.0
2014-Jul-19 19:33N 38°42' W 009°10'0 0.0
2014-Jul-19 18:33N 38°42' W 009°10'0 0.0
2014-Jul-19 17:33N 38°42' W 009°10'0 0.0
2014-Jul-19 16:33N 38°42' W 009°10'0 0.0
2014-Jul-19 15:33N 38°42' W 009°10'0 0.0
2014-Jul-19 14:33N 38°42' W 009°10'3 3.2
2014-Jul-19 13:33N 38°41' W 009°14'3 3.2
2014-Jul-19 12:33N 38°42' W 009°10'0 0.0
2014-Jul-19 11:33N 38°42' W 009°10'0 0.0
2014-Jul-19 10:33N 38°42' W 009°10'0 0.0
2014-Jul-19 09:33N 38°42' W 009°10'0 0.0
2014-Jul-19 08:34N 38°42' W 009°10'2 2.1
2014-Jul-19 07:31N 38°41' W 009°12'4 4.3
2014-Jul-19 06:34N 38°43' W 009°07'0 0.2
2014-Jul-19 05:33N 38°43' W 009°07'2 1.7
2014-Jul-19 04:25N 38°42' W 009°10'0 0.0
2014-Jul-19 03:26N 38°42' W 009°10'0 0.0
2014-Jul-19 02:23N 38°42' W 009°10'0 0.0
2014-Jul-19 01:31N 38°42' W 009°10'0 0.0
2014-Jul-18 23:27N 38°42' W 009°10'0 0.0
2014-Jul-18 22:33N 38°42' W 009°10'0 0.0
2014-Jul-18 21:33N 38°42' W 009°10'0 0.0
2014-Jul-18 20:32N 38°42' W 009°10'0 0.0
2014-Jul-18 19:33N 38°42' W 009°10'0 0.0
2014-Jul-18 18:30N 38°42' W 009°10'0 0.5
2014-Jul-18 17:33N 38°42' W 009°10'2 0.7
2014-Jul-18 14:33N 38°40' W 009°09'0 0.2
2014-Jul-18 13:33N 38°40' W 009°09'2 0.6
2014-Jul-18 10:10N 38°42' W 009°10'1 2.4
2014-Jul-18 09:33N 38°41' W 009°09'1 1.1
2014-Jul-18 08:33N 38°42' W 009°09'0 0.3
2014-Jul-18 07:30N 38°42' W 009°10'0 0.0
2014-Jul-18 06:33N 38°42' W 009°10'0 0.0
2014-Jul-18 05:31N 38°42' W 009°10'0 0.0
2014-Jul-18 04:20N 38°42' W 009°10'0 0.0
2014-Jul-18 03:34N 38°42' W 009°10'0 0.0
2014-Jul-18 02:30N 38°42' W 009°10'0 0.0
2014-Jul-18 01:29N 38°42' W 009°10'0 0.0
2014-Jul-18 00:14N 38°42' W 009°10'0 0.0
2014-Jul-17 23:29N 38°42' W 009°10'0 0.0
2014-Jul-17 22:31N 38°42' W 009°10'0 0.0
2014-Jul-17 21:15N 38°42' W 009°10'0 0.0
2014-Jul-17 20:18N 38°42' W 009°10'1 1.6
2014-Jul-17 19:34N 38°41' W 009°09'1 1.4
2014-Jul-17 18:33N 38°40' W 009°08'0 0.1
2014-Jul-17 17:34N 38°40' W 009°08'2 2.4
2014-Jul-17 16:34N 38°42' W 009°10'0 0.0
2014-Jul-17 15:34N 38°42' W 009°10'0 0.0
2014-Jul-17 14:33N 38°42' W 009°10'0 0.0
2014-Jul-17 13:33N 38°42' W 009°10'0 0.0
2014-Jul-17 12:33N 38°42' W 009°10'0 0.0
2014-Jul-17 11:34N 38°42' W 009°10'0 0.0
2014-Jul-17 10:29N 38°42' W 009°10'0 0.0
2014-Jul-17 09:33N 38°42' W 009°10'0 0.0
2014-Jul-17 08:31N 38°42' W 009°10'0 0.0
2014-Jul-17 07:33N 38°42' W 009°10'0 0.0
2014-Jul-17 06:33N 38°42' W 009°10'0 0.0
2014-Jul-17 05:34N 38°42' W 009°10'0 0.0
2014-Jul-17 04:33N 38°42' W 009°10'0 0.0
2014-Jul-17 03:34N 38°42' W 009°10'0 0.0
2014-Jul-17 02:34N 38°42' W 009°10'0 0.0
2014-Jul-17 01:33N 38°42' W 009°10'0 0.0
2014-Jul-17 00:33N 38°42' W 009°10'0 0.0
2014-Jul-16 23:34N 38°42' W 009°10'0 0.0
2014-Jul-16 22:33N 38°42' W 009°10'0 0.0
2014-Jul-16 21:34N 38°42' W 009°10'0 0.0
2014-Jul-16 20:33N 38°42' W 009°10'0 0.0
2014-Jul-16 19:34N 38°42' W 009°10'0 0.0
2014-Jul-16 18:33N 38°42' W 009°10'0 0.0
2014-Jul-16 17:34N 38°42' W 009°10'0 0.0
2014-Jul-16 16:33N 38°42' W 009°10'0 0.0
2014-Jul-16 15:33N 38°42' W 009°10'0 0.0
2014-Jul-16 14:34N 38°42' W 009°10'0 0.0
2014-Jul-16 13:33N 38°42' W 009°10'0 0.0
2014-Jul-16 12:33N 38°42' W 009°10'0 0.2
2014-Jul-16 11:33N 38°42' W 009°10'4 3.7
2014-Jul-16 10:33N 38°41' W 009°14'0 0.0
2014-Jul-16 09:33N 38°41' W 009°14'2 1.6
2014-Jul-16 08:33N 38°41' W 009°12'2 2.3
2014-Jul-16 07:33N 38°42' W 009°10'0 0.0
2014-Jul-16 06:33N 38°42' W 009°10'0 0.0
2014-Jul-16 05:33N 38°42' W 009°10'0 0.0
2014-Jul-16 04:33N 38°42' W 009°10'0 0.0
2014-Jul-16 03:33N 38°42' W 009°10'0 0.0
2014-Jul-16 02:33N 38°42' W 009°10'0 0.0
2014-Jul-16 01:33N 38°42' W 009°10'0 0.0
2014-Jul-16 00:33N 38°42' W 009°10'0 0.0
2014-Jul-15 23:33N 38°42' W 009°10'0 0.0
2014-Jul-15 22:33N 38°42' W 009°10'0 0.0
2014-Jul-15 21:33N 38°42' W 009°10'0 0.0
2014-Jul-15 20:33N 38°42' W 009°10'0 0.0
2014-Jul-15 19:33N 38°42' W 009°10'0 0.3
2014-Jul-15 18:33N 38°42' W 009°10'0 0.3
2014-Jul-15 17:33N 38°42' W 009°10'2 1.6
2014-Jul-15 16:33N 38°41' W 009°08'1 0.8
2014-Jul-15 15:34N 38°40' W 009°09'2 2.2
2014-Jul-15 14:33N 38°42' W 009°10'0 0.0
2014-Jul-15 13:33N 38°42' W 009°10'0 0.0
2014-Jul-15 12:33N 38°42' W 009°10'1 0.9
2014-Jul-15 11:33N 38°42' W 009°08'1 1.5
2014-Jul-15 10:33N 38°43' W 009°07'0 0.0
2014-Jul-15 09:33N 38°43' W 009°07'2 2.2
2014-Jul-15 08:33N 38°42' W 009°10'0 0.0
2014-Jul-15 07:33N 38°42' W 009°10'0 0.2
2014-Jul-15 06:33N 38°42' W 009°10'1 0.5
2014-Jul-15 05:33N 38°42' W 009°10'1 0.7
2014-Jul-15 04:33N 38°42' W 009°10'0 0.0
2014-Jul-15 03:33N 38°42' W 009°10'  
Track history (hours):
 
Tides and Currents Weather Stations Pressure Air Temp Water Temp Dewpoint Dewpoint Depression Visibility Wind Speed Wind Dir Waves Ship Positions

Svitzer Leixoes

Last reported at 2014-Jul-25 03:33 UTC. Time now 2014-Jul-25 03:40 UTC.
Position N 38°42' W 009°10'.

Length 28 m; draft 3.9 m.

Type: Towing. MMSI: 263622000.

Date/timePositionNaut miles runAvg speedWind from/ knotsBaromVisibWave heightAir tempDewpointWater temp
2014-Jul-25 03:33N 38°42' W 009°10'0 0.0
2014-Jul-25 02:34N 38°42' W 009°10'4 3.8
2014-Jul-25 01:33N 38°41' W 009°14'2 2.4
2014-Jul-25 00:33N 38°42' W 009°11'1 1.4
2014-Jul-24 23:33N 38°42' W 009°10'0 0.0
2014-Jul-24 22:33N 38°42' W 009°10'0 0.0
2014-Jul-24 21:33N 38°42' W 009°10'1 1.2
2014-Jul-24 20:33N 38°41' W 009°08'1 1.2
2014-Jul-24 19:33N 38°42' W 009°10'2 2.0
2014-Jul-24 18:33N 38°41' W 009°12'2 2.0
2014-Jul-24 17:33N 38°42' W 009°10'2 1.5
2014-Jul-24 16:34N 38°42' W 009°08'2 1.2
2014-Jul-24 14:32N 38°42' W 009°11'1 1.0
2014-Jul-24 13:33N 38°41' W 009°11'1 1.2
2014-Jul-24 12:32N 38°42' W 009°10'1 0.6
2014-Jul-24 11:29N 38°42' W 009°10'1 1.5
2014-Jul-24 10:33N 38°42' W 009°08'1 0.7
2014-Jul-24 08:33N 38°42' W 009°10'0 0.0
2014-Jul-24 07:33N 38°42' W 009°10'0 0.0
2014-Jul-24 06:25N 38°42' W 009°10'1 1.3
2014-Jul-24 05:33N 38°42' W 009°11'1 0.9
2014-Jul-24 04:16N 38°42' W 009°10'0 0.0
2014-Jul-24 03:21N 38°42' W 009°10'0 0.0
2014-Jul-24 01:33N 38°42' W 009°10'0 0.0
2014-Jul-24 00:32N 38°42' W 009°10'1 1.3
2014-Jul-23 23:34N 38°41' W 009°08'1 1.5
2014-Jul-23 22:34N 38°41' W 009°07'3 2.7
2014-Jul-23 21:32N 38°42' W 009°10'0 0.0
2014-Jul-23 20:33N 38°42' W 009°10'0 0.0
2014-Jul-23 19:33N 38°42' W 009°10'0 0.0
2014-Jul-23 18:31N 38°42' W 009°10'0 0.0
2014-Jul-23 17:31N 38°42' W 009°10'0 0.3
2014-Jul-23 16:33N 38°42' W 009°10'0 0.4
2014-Jul-23 15:33N 38°42' W 009°10'1 0.6
2014-Jul-23 14:28N 38°42' W 009°10'0 0.0
2014-Jul-23 13:25N 38°42' W 009°10'1 0.6
2014-Jul-23 12:32N 38°42' W 009°09'1 0.3
2014-Jul-23 10:25N 38°42' W 009°10'0 0.0
2014-Jul-23 09:34N 38°42' W 009°10'0 0.0
2014-Jul-23 08:33N 38°42' W 009°10'0 0.0
2014-Jul-23 07:31N 38°42' W 009°10'0 0.0
2014-Jul-23 06:33N 38°42' W 009°10'0 0.0
2014-Jul-23 05:32N 38°42' W 009°10'0 0.0
2014-Jul-23 04:34N 38°42' W 009°10'0 0.0
2014-Jul-23 03:33N 38°42' W 009°10'0 0.0
2014-Jul-23 02:32N 38°42' W 009°10'0 0.0
2014-Jul-23 01:34N 38°42' W 009°10'1 1.2
2014-Jul-23 00:34N 38°41' W 009°08'4 3.5
2014-Jul-22 23:33N 38°41' W 009°04'5 4.6
2014-Jul-22 22:34N 38°42' W 009°10'0 0.0
2014-Jul-22 21:31N 38°42' W 009°10'0 0.0
2014-Jul-22 20:31N 38°42' W 009°10'0 0.0
2014-Jul-22 19:33N 38°42' W 009°10'0 0.0
2014-Jul-22 18:27N 38°42' W 009°10'0 0.0
2014-Jul-22 17:11N 38°42' W 009°10'0 0.0
2014-Jul-22 13:29N 38°42' W 009°10'0 0.0
2014-Jul-22 12:33N 38°42' W 009°10'0 0.0
2014-Jul-22 11:33N 38°42' W 009°10'0 0.0
2014-Jul-22 10:28N 38°42' W 009°10'0 0.0
2014-Jul-22 09:33N 38°42' W 009°10'0 0.0
2014-Jul-22 08:33N 38°42' W 009°10'0 0.0
2014-Jul-22 07:33N 38°42' W 009°10'0 0.4
2014-Jul-22 06:33N 38°42' W 009°10'0 0.4
2014-Jul-22 05:33N 38°42' W 009°10'0 0.0
2014-Jul-22 04:33N 38°42' W 009°10'0 0.0
2014-Jul-22 03:33N 38°42' W 009°10'0 0.0
2014-Jul-22 02:34N 38°42' W 009°10'0 0.0
2014-Jul-22 01:34N 38°42' W 009°10'0 0.0
2014-Jul-22 00:33N 38°42' W 009°10'0 0.0
2014-Jul-21 23:33N 38°42' W 009°10'0 0.0
2014-Jul-21 22:33N 38°42' W 009°10'0 0.0
2014-Jul-21 21:32N 38°42' W 009°10'3 3.1
2014-Jul-21 20:33N 38°41' W 009°13'1 3.0
2014-Jul-21 20:15N 38°41' W 009°14'0 0.1
2014-Jul-21 19:33N 38°41' W 009°14'0 0.1
2014-Jul-21 17:31N 38°41' W 009°14'0 0.2
2014-Jul-21 16:32N 38°41' W 009°14'3 2.5
2014-Jul-21 15:14N 38°42' W 009°10'1 0.9
2014-Jul-21 14:32N 38°42' W 009°10'0 0.0
2014-Jul-21 13:33N 38°42' W 009°10'0 0.0
2014-Jul-21 12:33N 38°42' W 009°10'0 0.0
2014-Jul-21 11:34N 38°42' W 009°10'3 3.3
2014-Jul-21 10:33N 38°41' W 009°06'0 0.1
2014-Jul-21 09:34N 38°41' W 009°06'3 2.9
2014-Jul-21 08:29N 38°42' W 009°10'0 0.4
2014-Jul-21 07:34N 38°42' W 009°10'0 0.1
2014-Jul-21 06:34N 38°42' W 009°10'0 0.4
2014-Jul-21 05:33N 38°42' W 009°10'0 0.0
2014-Jul-21 04:34N 38°42' W 009°10'0 0.0
2014-Jul-21 03:33N 38°42' W 009°10'0 0.0
2014-Jul-21 02:33N 38°42' W 009°10'0 0.0
2014-Jul-21 01:33N 38°42' W 009°10'0 0.0
2014-Jul-21 00:33N 38°42' W 009°10'0 0.1
2014-Jul-20 23:32N 38°42' W 009°09'0 0.3
2014-Jul-20 22:34N 38°42' W 009°09'0 0.2
2014-Jul-20 21:32N 38°42' W 009°10'0 0.0
2014-Jul-20 20:33N 38°42' W 009°10'0 0.0
2014-Jul-20 19:33N 38°42' W 009°10'0 0.0
2014-Jul-20 18:34N 38°42' W 009°10'0 0.0
2014-Jul-20 17:33N 38°42' W 009°10'0 0.0
2014-Jul-20 16:32N 38°42' W 009°10'0 0.0
2014-Jul-20 15:30N 38°42' W 009°10'0 0.0
2014-Jul-20 14:33N 38°42' W 009°10'0 0.0
2014-Jul-20 13:34N 38°42' W 009°10'0 0.0
2014-Jul-20 12:33N 38°42' W 009°10'0 0.0
2014-Jul-20 11:34N 38°42' W 009°10'0 0.3
2014-Jul-20 10:34N 38°42' W 009°09'2 1.6
2014-Jul-20 09:33N 38°41' W 009°11'1 0.5
2014-Jul-20 08:33N 38°41' W 009°11'2 1.9
2014-Jul-20 07:34N 38°42' W 009°10'0 0.0
2014-Jul-20 06:29N 38°42' W 009°10'0 0.0
2014-Jul-20 05:33N 38°42' W 009°10'0 0.0
2014-Jul-20 04:28N 38°42' W 009°10'0 0.0
2014-Jul-20 03:33N 38°42' W 009°10'0 0.0
2014-Jul-20 02:34N 38°42' W 009°10'0 0.0
2014-Jul-20 01:32N 38°42' W 009°10'0 0.0
2014-Jul-20 00:34N 38°42' W 009°10'0 0.0
2014-Jul-19 23:33N 38°42' W 009°10'0 0.0
2014-Jul-19 22:33N 38°42' W 009°10'0 0.0
2014-Jul-19 21:33N 38°42' W 009°10'0 0.0
2014-Jul-19 20:33N 38°42' W 009°10'0 0.0
2014-Jul-19 19:33N 38°42' W 009°10'0 0.0
2014-Jul-19 18:33N 38°42' W 009°10'0 0.0
2014-Jul-19 17:33N 38°42' W 009°10'0 0.0
2014-Jul-19 16:33N 38°42' W 009°10'0 0.0
2014-Jul-19 15:33N 38°42' W 009°10'0 0.0
2014-Jul-19 14:33N 38°42' W 009°10'3 3.2
2014-Jul-19 13:33N 38°41' W 009°14'3 3.2
2014-Jul-19 12:33N 38°42' W 009°10'0 0.0
2014-Jul-19 11:33N 38°42' W 009°10'0 0.0
2014-Jul-19 10:33N 38°42' W 009°10'0 0.0
2014-Jul-19 09:33N 38°42' W 009°10'0 0.0
2014-Jul-19 08:34N 38°42' W 009°10'2 2.1
2014-Jul-19 07:31N 38°41' W 009°12'4 4.3
2014-Jul-19 06:34N 38°43' W 009°07'0 0.2
2014-Jul-19 05:33N 38°43' W 009°07'2 1.7
2014-Jul-19 04:25N 38°42' W 009°10'0 0.0
2014-Jul-19 03:26N 38°42' W 009°10'0 0.0
2014-Jul-19 02:23N 38°42' W 009°10'0 0.0
2014-Jul-19 01:31N 38°42' W 009°10'0 0.0
2014-Jul-18 23:27N 38°42' W 009°10'0 0.0
2014-Jul-18 22:33N 38°42' W 009°10'0 0.0
2014-Jul-18 21:33N 38°42' W 009°10'0 0.0
2014-Jul-18 20:32N 38°42' W 009°10'0 0.0
2014-Jul-18 19:33N 38°42' W 009°10'0 0.0
2014-Jul-18 18:30N 38°42' W 009°10'0 0.5
2014-Jul-18 17:33N 38°42' W 009°10'2 0.7
2014-Jul-18 14:33N 38°40' W 009°09'0 0.2
2014-Jul-18 13:33N 38°40' W 009°09'2 0.6
2014-Jul-18 10:10N 38°42' W 009°10'1 2.4
2014-Jul-18 09:33N 38°41' W 009°09'1 1.1
2014-Jul-18 08:33N 38°42' W 009°09'0 0.3
2014-Jul-18 07:30N 38°42' W 009°10'0 0.0
2014-Jul-18 06:33N 38°42' W 009°10'0 0.0
2014-Jul-18 05:31N 38°42' W 009°10'0 0.0
2014-Jul-18 04:20N 38°42' W 009°10'0 0.0
2014-Jul-18 03:34N 38°42' W 009°10'0 0.0
2014-Jul-18 02:30N 38°42' W 009°10'0 0.0
2014-Jul-18 01:29N 38°42' W 009°10'0 0.0
2014-Jul-18 00:14N 38°42' W 009°10'0 0.0
2014-Jul-17 23:29N 38°42' W 009°10'0 0.0
2014-Jul-17 22:31N 38°42' W 009°10'0 0.0
2014-Jul-17 21:15N 38°42' W 009°10'0 0.0
2014-Jul-17 20:18N 38°42' W 009°10'1 1.6
2014-Jul-17 19:34N 38°41' W 009°09'1 1.4
2014-Jul-17 18:33N 38°40' W 009°08'0 0.1
2014-Jul-17 17:34N 38°40' W 009°08'2 2.4
2014-Jul-17 16:34N 38°42' W 009°10'0 0.0
2014-Jul-17 15:34N 38°42' W 009°10'0 0.0
2014-Jul-17 14:33N 38°42' W 009°10'0 0.0
2014-Jul-17 13:33N 38°42' W 009°10'0 0.0
2014-Jul-17 12:33N 38°42' W 009°10'0 0.0
2014-Jul-17 11:34N 38°42' W 009°10'0 0.0
2014-Jul-17 10:29N 38°42' W 009°10'0 0.0
2014-Jul-17 09:33N 38°42' W 009°10'0 0.0
2014-Jul-17 08:31N 38°42' W 009°10'0 0.0
2014-Jul-17 07:33N 38°42' W 009°10'0 0.0
2014-Jul-17 06:33N 38°42' W 009°10'0 0.0
2014-Jul-17 05:34N 38°42' W 009°10'0 0.0
2014-Jul-17 04:33N 38°42' W 009°10'0 0.0
2014-Jul-17 03:34N 38°42' W 009°10'0 0.0
2014-Jul-17 02:34N 38°42' W 009°10'0 0.0
2014-Jul-17 01:33N 38°42' W 009°10'0 0.0
2014-Jul-17 00:33N 38°42' W 009°10'0 0.0
2014-Jul-16 23:34N 38°42' W 009°10'0 0.0
2014-Jul-16 22:33N 38°42' W 009°10'0 0.0
2014-Jul-16 21:34N 38°42' W 009°10'0 0.0
2014-Jul-16 20:33N 38°42' W 009°10'0 0.0
2014-Jul-16 19:34N 38°42' W 009°10'0 0.0
2014-Jul-16 18:33N 38°42' W 009°10'0 0.0
2014-Jul-16 17:34N 38°42' W 009°10'0 0.0
2014-Jul-16 16:33N 38°42' W 009°10'0 0.0
2014-Jul-16 15:33N 38°42' W 009°10'0 0.0
2014-Jul-16 14:34N 38°42' W 009°10'0 0.0
2014-Jul-16 13:33N 38°42' W 009°10'0 0.0
2014-Jul-16 12:33N 38°42' W 009°10'0 0.2
2014-Jul-16 11:33N 38°42' W 009°10'4 3.7
2014-Jul-16 10:33N 38°41' W 009°14'0 0.0
2014-Jul-16 09:33N 38°41' W 009°14'2 1.6
2014-Jul-16 08:33N 38°41' W 009°12'2 2.3
2014-Jul-16 07:33N 38°42' W 009°10'0 0.0
2014-Jul-16 06:33N 38°42' W 009°10'0 0.0
2014-Jul-16 05:33N 38°42' W 009°10'0 0.0
2014-Jul-16 04:33N 38°42' W 009°10'0 0.0
2014-Jul-16 03:33N 38°42' W 009°10'0 0.0
2014-Jul-16 02:33N 38°42' W 009°10'0 0.0
2014-Jul-16 01:33N 38°42' W 009°10'0 0.0
2014-Jul-16 00:33N 38°42' W 009°10'0 0.0
2014-Jul-15 23:33N 38°42' W 009°10'0 0.0
2014-Jul-15 22:33N 38°42' W 009°10'0 0.0
2014-Jul-15 21:33N 38°42' W 009°10'0 0.0
2014-Jul-15 20:33N 38°42' W 009°10'0 0.0
2014-Jul-15 19:33N 38°42' W 009°10'0 0.3
2014-Jul-15 18:33N 38°42' W 009°10'0 0.3
2014-Jul-15 17:33N 38°42' W 009°10'2 1.6
2014-Jul-15 16:33N 38°41' W 009°08'1 0.8
2014-Jul-15 15:34N 38°40' W 009°09'2 2.2
2014-Jul-15 14:33N 38°42' W 009°10'0 0.0
2014-Jul-15 13:33N 38°42' W 009°10'0 0.0
2014-Jul-15 12:33N 38°42' W 009°10'1 0.9
2014-Jul-15 11:33N 38°42' W 009°08'1 1.5
2014-Jul-15 10:33N 38°43' W 009°07'0 0.0
2014-Jul-15 09:33N 38°43' W 009°07'2 2.2
2014-Jul-15 08:33N 38°42' W 009°10'0 0.0
2014-Jul-15 07:33N 38°42' W 009°10'0 0.2
2014-Jul-15 06:33N 38°42' W 009°10'1 0.5
2014-Jul-15 05:33N 38°42' W 009°10'1 0.7
2014-Jul-15 04:33N 38°42' W 009°10'0 0.0
2014-Jul-15 03:33N 38°42' W 009°10'  

Dump ship's entire track history